sensor_id;sensor_type;location;lat;lon;timestamp;pressure;altitude;pressure_sealevel;temperature;humidity
35655;BME280;21773;50.010;19.972;2023-01-30T00:02:29;98871.72;;;3.92;47.62
35655;BME280;21773;50.010;19.972;2023-01-30T00:05:33;98860.19;;;3.92;47.61
35655;BME280;21773;50.010;19.972;2023-01-30T00:08:37;98855.88;;;3.91;47.69
35655;BME280;21773;50.010;19.972;2023-01-30T00:11:41;98852.81;;;3.79;47.76
35655;BME280;21773;50.010;19.972;2023-01-30T00:14:44;98834.63;;;3.83;47.76
35655;BME280;21773;50.010;19.972;2023-01-30T00:17:47;98822.38;;;3.74;47.93
35655;BME280;21773;50.010;19.972;2023-01-30T00:20:55;98820.53;;;3.74;47.75
35655;BME280;21773;50.010;19.972;2023-01-30T00:23:59;98812.00;;;3.79;47.68
35655;BME280;21773;50.010;19.972;2023-01-30T00:27:02;98800.63;;;3.85;47.65
35655;BME280;21773;50.010;19.972;2023-01-30T00:30:07;98795.34;;;3.91;47.64
35655;BME280;21773;50.010;19.972;2023-01-30T00:33:10;98786.91;;;3.88;47.78
35655;BME280;21773;50.010;19.972;2023-01-30T00:36:15;98776.81;;;3.98;47.51
35655;BME280;21773;50.010;19.972;2023-01-30T00:39:18;98777.09;;;4.03;47.66
35655;BME280;21773;50.010;19.972;2023-01-30T00:42:21;98773.31;;;4.12;47.40
35655;BME280;21773;50.010;19.972;2023-01-30T00:45:43;98761.81;;;4.12;47.34
35655;BME280;21773;50.010;19.972;2023-01-30T00:49:05;98749.59;;;4.17;47.45
35655;BME280;21773;50.010;19.972;2023-01-30T00:52:10;98745.25;;;4.16;47.29
35655;BME280;21773;50.010;19.972;2023-01-30T00:55:13;98742.22;;;4.19;47.42
35655;BME280;21773;50.010;19.972;2023-01-30T00:58:18;98724.94;;;4.15;47.50
35655;BME280;21773;50.010;19.972;2023-01-30T01:01:21;98725.28;;;4.27;47.20
35655;BME280;21773;50.010;19.972;2023-01-30T01:04:25;98720.59;;;4.29;47.26
35655;BME280;21773;50.010;19.972;2023-01-30T01:07:29;98700.97;;;4.36;47.04
35655;BME280;21773;50.010;19.972;2023-01-30T01:10:33;98697.97;;;4.40;47.06
35655;BME280;21773;50.010;19.972;2023-01-30T01:13:36;98692.06;;;4.44;46.75
35655;BME280;21773;50.010;19.972;2023-01-30T01:16:39;98689.66;;;4.49;46.81
35655;BME280;21773;50.010;19.972;2023-01-30T01:19:43;98682.91;;;4.53;46.65
35655;BME280;21773;50.010;19.972;2023-01-30T01:22:51;98673.25;;;4.52;46.59
35655;BME280;21773;50.010;19.972;2023-01-30T01:25:55;98669.09;;;4.50;47.02
35655;BME280;21773;50.010;19.972;2023-01-30T01:28:58;98665.81;;;4.48;46.74
35655;BME280;21773;50.010;19.972;2023-01-30T01:32:04;98651.63;;;4.47;46.79
35655;BME280;21773;50.010;19.972;2023-01-30T01:35:08;98657.16;;;4.46;46.79
35655;BME280;21773;50.010;19.972;2023-01-30T01:38:13;98659.38;;;4.42;46.64
35655;BME280;21773;50.010;19.972;2023-01-30T01:41:17;98643.94;;;4.38;46.86
35655;BME280;21773;50.010;19.972;2023-01-30T01:44:23;98629.75;;;4.37;46.81
35655;BME280;21773;50.010;19.972;2023-01-30T01:47:27;98622.69;;;4.29;46.97
35655;BME280;21773;50.010;19.972;2023-01-30T01:50:38;98619.56;;;4.26;47.18
35655;BME280;21773;50.010;19.972;2023-01-30T01:53:47;98609.66;;;4.20;47.44
35655;BME280;21773;50.010;19.972;2023-01-30T01:56:52;98610.75;;;4.11;47.42
35655;BME280;21773;50.010;19.972;2023-01-30T02:00:00;98595.03;;;4.01;47.62
35655;BME280;21773;50.010;19.972;2023-01-30T02:03:16;98591.09;;;3.97;47.75
35655;BME280;21773;50.010;19.972;2023-01-30T02:06:20;98579.72;;;3.88;48.00
35655;BME280;21773;50.010;19.972;2023-01-30T02:09:26;98582.41;;;3.88;48.12
35655;BME280;21773;50.010;19.972;2023-01-30T02:12:32;98577.63;;;3.84;48.23
35655;BME280;21773;50.010;19.972;2023-01-30T02:15:35;98570.34;;;3.78;48.36
35655;BME280;21773;50.010;19.972;2023-01-30T02:18:41;98563.66;;;3.67;48.54
35655;BME280;21773;50.010;19.972;2023-01-30T02:22:21;98559.09;;;3.61;48.74
35655;BME280;21773;50.010;19.972;2023-01-30T02:25:53;98542.81;;;3.56;48.50
35655;BME280;21773;50.010;19.972;2023-01-30T02:29:30;98554.94;;;3.59;48.86
35655;BME280;21773;50.010;19.972;2023-01-30T02:32:45;98549.72;;;3.51;48.68
35655;BME280;21773;50.010;19.972;2023-01-30T02:36:01;98564.16;;;3.56;48.89
35655;BME280;21773;50.010;19.972;2023-01-30T02:39:11;98556.06;;;3.35;49.27
35655;BME280;21773;50.010;19.972;2023-01-30T02:42:22;98542.91;;;3.33;48.98
35655;BME280;21773;50.010;19.972;2023-01-30T02:45:33;98531.25;;;3.20;48.96
35655;BME280;21773;50.010;19.972;2023-01-30T02:48:42;98540.91;;;3.35;48.91
35655;BME280;21773;50.010;19.972;2023-01-30T02:51:50;98530.81;;;3.31;49.34
35655;BME280;21773;50.010;19.972;2023-01-30T02:54:54;98523.16;;;3.28;49.11
35655;BME280;21773;50.010;19.972;2023-01-30T02:57:59;98521.69;;;3.25;49.22
35655;BME280;21773;50.010;19.972;2023-01-30T03:01:19;98518.38;;;3.23;49.31
35655;BME280;21773;50.010;19.972;2023-01-30T03:04:48;98510.88;;;3.12;49.55
35655;BME280;21773;50.010;19.972;2023-01-30T03:08:03;98500.28;;;3.04;49.82
35655;BME280;21773;50.010;19.972;2023-01-30T03:11:11;98483.47;;;2.89;50.03
35655;BME280;21773;50.010;19.972;2023-01-30T03:14:20;98490.41;;;2.98;49.64
35655;BME280;21773;50.010;19.972;2023-01-30T03:17:28;98492.56;;;2.94;50.13
35655;BME280;21773;50.010;19.972;2023-01-30T03:20:38;98498.81;;;2.87;50.27
35655;BME280;21773;50.010;19.972;2023-01-30T03:23:43;98489.44;;;2.76;50.71
35655;BME280;21773;50.010;19.972;2023-01-30T03:26:50;98485.28;;;2.74;50.75
35655;BME280;21773;50.010;19.972;2023-01-30T03:29:55;98475.22;;;2.84;50.50
35655;BME280;21773;50.010;19.972;2023-01-30T03:32:59;98463.94;;;2.82;50.58
35655;BME280;21773;50.010;19.972;2023-01-30T03:36:04;98462.94;;;2.83;50.64
35655;BME280;21773;50.010;19.972;2023-01-30T03:39:08;98467.44;;;2.82;50.49
35655;BME280;21773;50.010;19.972;2023-01-30T03:42:13;98468.25;;;2.83;50.30
35655;BME280;21773;50.010;19.972;2023-01-30T03:45:16;98461.19;;;2.90;49.80
35655;BME280;21773;50.010;19.972;2023-01-30T03:48:22;98452.09;;;2.84;50.07
35655;BME280;21773;50.010;19.972;2023-01-30T03:51:29;98448.69;;;2.76;50.01
35655;BME280;21773;50.010;19.972;2023-01-30T03:54:33;98447.50;;;2.78;49.91
35655;BME280;21773;50.010;19.972;2023-01-30T03:57:37;98432.53;;;2.77;49.44
35655;BME280;21773;50.010;19.972;2023-01-30T04:00:41;98424.91;;;2.74;49.96
35655;BME280;21773;50.010;19.972;2023-01-30T04:03:44;98424.28;;;2.72;49.67
35655;BME280;21773;50.010;19.972;2023-01-30T04:06:50;98406.47;;;2.73;49.52
35655;BME280;21773;50.010;19.972;2023-01-30T04:09:54;98420.34;;;2.68;50.38
35655;BME280;21773;50.010;19.972;2023-01-30T04:12:59;98424.00;;;2.67;50.45
35655;BME280;21773;50.010;19.972;2023-01-30T04:16:16;98415.00;;;2.68;50.14
35655;BME280;21773;50.010;19.972;2023-01-30T04:19:37;98415.84;;;2.69;50.01
35655;BME280;21773;50.010;19.972;2023-01-30T04:22:42;98414.91;;;2.61;50.04
35655;BME280;21773;50.010;19.972;2023-01-30T04:25:46;98401.00;;;2.22;51.11
35655;BME280;21773;50.010;19.972;2023-01-30T04:28:52;98398.63;;;2.27;51.53
35655;BME280;21773;50.010;19.972;2023-01-30T04:31:56;98403.78;;;2.29;51.29
35655;BME280;21773;50.010;19.972;2023-01-30T04:35:04;98391.38;;;2.21;51.77
35655;BME280;21773;50.010;19.972;2023-01-30T04:38:09;98381.03;;;2.26;50.91
35655;BME280;21773;50.010;19.972;2023-01-30T04:41:13;98392.31;;;2.28;50.85
35655;BME280;21773;50.010;19.972;2023-01-30T04:44:19;98385.63;;;2.32;50.65
35655;BME280;21773;50.010;19.972;2023-01-30T04:47:33;98390.22;;;2.38;50.49
35655;BME280;21773;50.010;19.972;2023-01-30T04:50:37;98373.72;;;2.43;50.27
35655;BME280;21773;50.010;19.972;2023-01-30T04:53:42;98367.19;;;2.45;50.56
35655;BME280;21773;50.010;19.972;2023-01-30T04:56:45;98353.72;;;2.47;50.18
35655;BME280;21773;50.010;19.972;2023-01-30T04:59:49;98364.06;;;2.42;50.38
35655;BME280;21773;50.010;19.972;2023-01-30T05:02:53;98362.69;;;2.46;50.33
35655;BME280;21773;50.010;19.972;2023-01-30T05:05:57;98357.91;;;2.41;49.73
35655;BME280;21773;50.010;19.972;2023-01-30T05:09:02;98364.63;;;2.52;50.09
35655;BME280;21773;50.010;19.972;2023-01-30T05:12:07;98361.31;;;2.50;49.34
35655;BME280;21773;50.010;19.972;2023-01-30T05:15:11;98365.19;;;2.47;49.56
35655;BME280;21773;50.010;19.972;2023-01-30T05:18:14;98363.41;;;2.54;50.02
35655;BME280;21773;50.010;19.972;2023-01-30T05:21:19;98360.47;;;2.49;49.71
35655;BME280;21773;50.010;19.972;2023-01-30T05:24:24;98370.06;;;2.58;49.69
35655;BME280;21773;50.010;19.972;2023-01-30T05:27:28;98359.13;;;2.68;49.23
35655;BME280;21773;50.010;19.972;2023-01-30T05:30:31;98347.28;;;2.71;49.08
35655;BME280;21773;50.010;19.972;2023-01-30T05:33:35;98334.44;;;2.59;49.86
35655;BME280;21773;50.010;19.972;2023-01-30T05:36:38;98325.09;;;2.64;49.32
35655;BME280;21773;50.010;19.972;2023-01-30T05:39:43;98311.69;;;2.57;49.68
35655;BME280;21773;50.010;19.972;2023-01-30T05:42:46;98296.63;;;2.64;49.47
35655;BME280;21773;50.010;19.972;2023-01-30T05:45:51;98299.63;;;2.76;49.10
35655;BME280;21773;50.010;19.972;2023-01-30T05:48:54;98314.16;;;2.73;48.84
35655;BME280;21773;50.010;19.972;2023-01-30T05:51:57;98310.47;;;2.74;49.08
35655;BME280;21773;50.010;19.972;2023-01-30T05:55:02;98313.22;;;2.81;48.80
35655;BME280;21773;50.010;19.972;2023-01-30T05:58:06;98324.78;;;2.88;48.52
35655;BME280;21773;50.010;19.972;2023-01-30T06:01:11;98314.41;;;2.93;48.39
35655;BME280;21773;50.010;19.972;2023-01-30T06:04:15;98296.81;;;2.98;47.86
35655;BME280;21773;50.010;19.972;2023-01-30T06:07:18;98285.81;;;3.01;47.91
35655;BME280;21773;50.010;19.972;2023-01-30T06:10:23;98279.47;;;3.02;47.48
35655;BME280;21773;50.010;19.972;2023-01-30T06:13:26;98278.53;;;3.10;46.94
35655;BME280;21773;50.010;19.972;2023-01-30T06:16:29;98285.75;;;3.16;46.78
35655;BME280;21773;50.010;19.972;2023-01-30T06:19:33;98267.56;;;3.20;46.18
35655;BME280;21773;50.010;19.972;2023-01-30T06:22:36;98261.50;;;3.32;46.32
35655;BME280;21773;50.010;19.972;2023-01-30T06:25:43;98268.72;;;3.32;45.90
35655;BME280;21773;50.010;19.972;2023-01-30T06:28:47;98255.81;;;3.35;45.54
35655;BME280;21773;50.010;19.972;2023-01-30T06:31:50;98231.09;;;3.41;45.07
35655;BME280;21773;50.010;19.972;2023-01-30T06:34:53;98218.63;;;3.48;44.92
35655;BME280;21773;50.010;19.972;2023-01-30T06:37:57;98198.44;;;3.61;44.36
35655;BME280;21773;50.010;19.972;2023-01-30T06:41:02;98196.59;;;3.61;44.16
35655;BME280;21773;50.010;19.972;2023-01-30T06:44:05;98205.88;;;3.72;43.90
35655;BME280;21773;50.010;19.972;2023-01-30T06:47:08;98198.75;;;3.79;43.75
35655;BME280;21773;50.010;19.972;2023-01-30T06:50:11;98181.09;;;3.78;43.39
35655;BME280;21773;50.010;19.972;2023-01-30T06:53:15;98193.66;;;3.84;43.11
35655;BME280;21773;50.010;19.972;2023-01-30T06:56:20;98196.38;;;3.90;43.29
35655;BME280;21773;50.010;19.972;2023-01-30T06:59:23;98203.56;;;3.90;42.84
35655;BME280;21773;50.010;19.972;2023-01-30T07:02:27;98186.38;;;4.06;42.20
35655;BME280;21773;50.010;19.972;2023-01-30T07:05:36;98184.59;;;4.13;42.22
35655;BME280;21773;50.010;19.972;2023-01-30T07:08:39;98185.00;;;4.16;42.07
35655;BME280;21773;50.010;19.972;2023-01-30T07:11:44;98187.31;;;4.19;42.10
35655;BME280;21773;50.010;19.972;2023-01-30T07:14:48;98170.69;;;4.24;42.00
35655;BME280;21773;50.010;19.972;2023-01-30T07:17:51;98151.00;;;4.25;42.43
35655;BME280;21773;50.010;19.972;2023-01-30T07:20:55;98137.84;;;4.23;42.60
35655;BME280;21773;50.010;19.972;2023-01-30T07:23:58;98145.91;;;4.36;42.18
35655;BME280;21773;50.010;19.972;2023-01-30T07:27:03;98138.16;;;4.48;41.55
35655;BME280;21773;50.010;19.972;2023-01-30T07:30:08;98144.75;;;4.59;41.19
35655;BME280;21773;50.010;19.972;2023-01-30T07:33:11;98147.41;;;4.65;40.80
35655;BME280;21773;50.010;19.972;2023-01-30T07:36:14;98151.53;;;4.74;40.44
35655;BME280;21773;50.010;19.972;2023-01-30T07:39:18;98148.88;;;4.81;40.59
35655;BME280;21773;50.010;19.972;2023-01-30T07:42:22;98149.72;;;4.95;40.58
35655;BME280;21773;50.010;19.972;2023-01-30T07:45:30;98160.84;;;4.98;40.61
35655;BME280;21773;50.010;19.972;2023-01-30T07:48:36;98155.91;;;5.15;40.66
35655;BME280;21773;50.010;19.972;2023-01-30T07:51:40;98154.91;;;5.22;40.12
35655;BME280;21773;50.010;19.972;2023-01-30T07:54:43;98147.69;;;5.23;40.13
35655;BME280;21773;50.010;19.972;2023-01-30T07:57:47;98155.09;;;5.28;40.07
35655;BME280;21773;50.010;19.972;2023-01-30T08:00:54;98140.91;;;5.34;39.77
35655;BME280;21773;50.010;19.972;2023-01-30T08:03:57;98146.44;;;5.45;39.77
35655;BME280;21773;50.010;19.972;2023-01-30T08:07:01;98141.72;;;5.34;39.66
35655;BME280;21773;50.010;19.972;2023-01-30T08:10:05;98137.84;;;5.37;39.84
35655;BME280;21773;50.010;19.972;2023-01-30T08:13:13;98133.31;;;5.37;39.59
35655;BME280;21773;50.010;19.972;2023-01-30T08:16:16;98131.03;;;5.41;39.83
35655;BME280;21773;50.010;19.972;2023-01-30T08:19:19;98131.63;;;5.49;40.02
35655;BME280;21773;50.010;19.972;2023-01-30T08:22:23;98125.47;;;5.49;39.51
35655;BME280;21773;50.010;19.972;2023-01-30T08:25:26;98108.41;;;5.43;39.82
35655;BME280;21773;50.010;19.972;2023-01-30T08:28:31;98103.06;;;5.56;39.67
35655;BME280;21773;50.010;19.972;2023-01-30T08:31:34;98100.97;;;5.65;39.70
35655;BME280;21773;50.010;19.972;2023-01-30T08:34:38;98114.97;;;5.60;39.45
35655;BME280;21773;50.010;19.972;2023-01-30T08:37:41;98098.09;;;5.60;39.19
35655;BME280;21773;50.010;19.972;2023-01-30T08:40:45;98095.63;;;5.72;39.45
35655;BME280;21773;50.010;19.972;2023-01-30T08:43:49;98058.97;;;5.79;39.24
35655;BME280;21773;50.010;19.972;2023-01-30T08:46:53;98053.44;;;6.25;39.17
35655;BME280;21773;50.010;19.972;2023-01-30T08:49:56;98061.09;;;7.52;36.89
35655;BME280;21773;50.010;19.972;2023-01-30T08:53:02;98064.75;;;8.42;34.87
35655;BME280;21773;50.010;19.972;2023-01-30T08:56:06;98072.31;;;8.63;35.20
35655;BME280;21773;50.010;19.972;2023-01-30T08:59:11;98071.91;;;8.48;35.11
35655;BME280;21773;50.010;19.972;2023-01-30T09:02:15;98069.16;;;8.54;35.49
35655;BME280;21773;50.010;19.972;2023-01-30T09:05:18;98051.34;;;8.95;34.74
35655;BME280;21773;50.010;19.972;2023-01-30T09:08:23;98051.78;;;10.36;32.84
35655;BME280;21773;50.010;19.972;2023-01-30T09:11:26;98040.72;;;11.83;30.34
35655;BME280;21773;50.010;19.972;2023-01-30T09:14:31;98019.06;;;13.44;28.06
35655;BME280;21773;50.010;19.972;2023-01-30T09:17:34;98040.84;;;14.11;27.51
35655;BME280;21773;50.010;19.972;2023-01-30T09:20:38;98030.56;;;13.61;27.43
35655;BME280;21773;50.010;19.972;2023-01-30T09:23:42;98013.72;;;12.85;28.90
35655;BME280;21773;50.010;19.972;2023-01-30T09:26:45;98022.38;;;11.85;30.03
35655;BME280;21773;50.010;19.972;2023-01-30T09:29:50;98034.00;;;10.80;31.38
35655;BME280;21773;50.010;19.972;2023-01-30T09:32:54;98023.41;;;10.17;32.79
35655;BME280;21773;50.010;19.972;2023-01-30T09:35:57;98019.56;;;9.62;33.89
35655;BME280;21773;50.010;19.972;2023-01-30T09:39:00;98003.81;;;9.19;34.85
35655;BME280;21773;50.010;19.972;2023-01-30T09:42:22;98005.72;;;8.65;35.72
35655;BME280;21773;50.010;19.972;2023-01-30T09:45:38;97994.28;;;8.28;36.76
35655;BME280;21773;50.010;19.972;2023-01-30T09:48:53;97974.09;;;7.96;37.34
35655;BME280;21773;50.010;19.972;2023-01-30T09:52:07;97974.66;;;7.98;37.83
35655;BME280;21773;50.010;19.972;2023-01-30T09:55:19;97973.56;;;7.57;38.37
35655;BME280;21773;50.010;19.972;2023-01-30T09:58:25;97973.84;;;7.49;38.60
35655;BME280;21773;50.010;19.972;2023-01-30T10:01:44;97981.75;;;7.26;39.09
35655;BME280;21773;50.010;19.972;2023-01-30T10:04:50;97974.00;;;7.18;39.78
35655;BME280;21773;50.010;19.972;2023-01-30T10:08:28;97970.38;;;6.87;40.24
35655;BME280;21773;50.010;19.972;2023-01-30T10:11:54;97949.75;;;6.88;40.40
35655;BME280;21773;50.010;19.972;2023-01-30T10:15:13;97936.41;;;6.81;40.60
35655;BME280;21773;50.010;19.972;2023-01-30T10:18:45;97932.69;;;6.64;41.07
35655;BME280;21773;50.010;19.972;2023-01-30T10:21:59;97936.03;;;6.60;41.52
35655;BME280;21773;50.010;19.972;2023-01-30T10:25:18;97913.16;;;6.57;41.67
35655;BME280;21773;50.010;19.972;2023-01-30T10:28:25;97921.66;;;6.54;42.12
35655;BME280;21773;50.010;19.972;2023-01-30T10:31:35;97915.88;;;6.50;42.27
35655;BME280;21773;50.010;19.972;2023-01-30T10:34:46;97900.59;;;6.58;42.18
35655;BME280;21773;50.010;19.972;2023-01-30T10:37:56;97898.38;;;6.55;42.54
35655;BME280;21773;50.010;19.972;2023-01-30T10:41:07;97886.53;;;6.62;42.62
35655;BME280;21773;50.010;19.972;2023-01-30T10:44:13;97858.25;;;6.48;42.39
35655;BME280;21773;50.010;19.972;2023-01-30T10:47:37;97871.50;;;6.61;42.79
35655;BME280;21773;50.010;19.972;2023-01-30T10:50:52;97871.66;;;6.66;42.58
35655;BME280;21773;50.010;19.972;2023-01-30T10:54:00;97869.16;;;6.71;42.76
35655;BME280;21773;50.010;19.972;2023-01-30T10:57:15;97875.84;;;6.80;42.49
35655;BME280;21773;50.010;19.972;2023-01-30T11:00:27;97863.44;;;6.86;42.36
35655;BME280;21773;50.010;19.972;2023-01-30T11:03:35;97891.41;;;6.72;43.41
35655;BME280;21773;50.010;19.972;2023-01-30T11:06:41;97867.06;;;6.73;43.86
35655;BME280;21773;50.010;19.972;2023-01-30T11:09:46;97872.66;;;6.72;44.23
35655;BME280;21773;50.010;19.972;2023-01-30T11:12:51;97863.22;;;6.69;44.24
35655;BME280;21773;50.010;19.972;2023-01-30T11:15:58;97850.69;;;6.63;45.07
35655;BME280;21773;50.010;19.972;2023-01-30T11:19:04;97848.38;;;6.48;45.55
35655;BME280;21773;50.010;19.972;2023-01-30T11:22:24;97845.75;;;6.60;45.18
35655;BME280;21773;50.010;19.972;2023-01-30T11:25:28;97843.13;;;6.78;44.91
35655;BME280;21773;50.010;19.972;2023-01-30T11:28:39;97833.50;;;6.71;45.20
35655;BME280;21773;50.010;19.972;2023-01-30T11:31:48;97834.03;;;6.79;45.19
35655;BME280;21773;50.010;19.972;2023-01-30T11:35:03;97831.13;;;6.63;46.14
35655;BME280;21773;50.010;19.972;2023-01-30T11:38:22;97823.91;;;6.63;46.29
35655;BME280;21773;50.010;19.972;2023-01-30T11:41:25;97845.72;;;6.67;46.49
35655;BME280;21773;50.010;19.972;2023-01-30T11:44:32;97801.50;;;6.39;46.89
35655;BME280;21773;50.010;19.972;2023-01-30T11:47:35;97804.19;;;6.58;46.65
35655;BME280;21773;50.010;19.972;2023-01-30T11:50:44;97799.31;;;6.55;47.13
35655;BME280;21773;50.010;19.972;2023-01-30T11:53:56;97806.66;;;6.59;47.36
35655;BME280;21773;50.010;19.972;2023-01-30T11:57:02;97810.81;;;6.55;47.61
35655;BME280;21773;50.010;19.972;2023-01-30T12:00:14;97798.06;;;6.32;48.44
35655;BME280;21773;50.010;19.972;2023-01-30T12:03:22;97785.66;;;6.20;49.28
35655;BME280;21773;50.010;19.972;2023-01-30T12:06:29;97785.19;;;6.23;49.65
35655;BME280;21773;50.010;19.972;2023-01-30T12:09:36;97771.44;;;6.01;50.91
35655;BME280;21773;50.010;19.972;2023-01-30T12:12:45;97773.78;;;5.84;51.72
35655;BME280;21773;50.010;19.972;2023-01-30T12:15:56;97770.13;;;5.79;52.52
35655;BME280;21773;50.010;19.972;2023-01-30T12:19:09;97768.63;;;5.89;52.39
35655;BME280;21773;50.010;19.972;2023-01-30T12:22:23;97763.44;;;5.94;52.17
35655;BME280;21773;50.010;19.972;2023-01-30T12:25:34;97758.56;;;5.85;52.64
35655;BME280;21773;50.010;19.972;2023-01-30T12:28:47;97758.09;;;5.94;52.60
35655;BME280;21773;50.010;19.972;2023-01-30T12:32:01;97715.66;;;5.98;52.25
35655;BME280;21773;50.010;19.972;2023-01-30T12:35:13;97740.94;;;6.02;52.44
35655;BME280;21773;50.010;19.972;2023-01-30T12:38:30;97741.69;;;6.09;52.29
35655;BME280;21773;50.010;19.972;2023-01-30T12:41:51;97740.16;;;6.20;52.00
35655;BME280;21773;50.010;19.972;2023-01-30T12:45:11;97730.63;;;6.05;52.69
35655;BME280;21773;50.010;19.972;2023-01-30T12:48:34;97752.97;;;5.93;52.92
35655;BME280;21773;50.010;19.972;2023-01-30T12:52:10;97746.06;;;6.03;53.26
35655;BME280;21773;50.010;19.972;2023-01-30T12:55:25;97735.69;;;6.14;53.25
35655;BME280;21773;50.010;19.972;2023-01-30T12:58:38;97731.16;;;6.32;53.04
35655;BME280;21773;50.010;19.972;2023-01-30T13:01:56;97730.22;;;6.45;52.50
35655;BME280;21773;50.010;19.972;2023-01-30T13:05:16;97737.31;;;6.51;52.16
35655;BME280;21773;50.010;19.972;2023-01-30T13:08:54;97731.53;;;6.36;52.56
35655;BME280;21773;50.010;19.972;2023-01-30T13:12:08;97730.28;;;6.38;52.38
35655;BME280;21773;50.010;19.972;2023-01-30T13:15:22;97709.81;;;6.26;52.67
35655;BME280;21773;50.010;19.972;2023-01-30T13:18:31;97716.75;;;6.33;52.66
35655;BME280;21773;50.010;19.972;2023-01-30T13:21:44;97719.06;;;6.30;52.75
35655;BME280;21773;50.010;19.972;2023-01-30T13:24:56;97719.25;;;6.28;53.00
35655;BME280;21773;50.010;19.972;2023-01-30T13:28:06;97707.81;;;6.21;53.28
35655;BME280;21773;50.010;19.972;2023-01-30T13:31:16;97699.47;;;6.11;53.75
35655;BME280;21773;50.010;19.972;2023-01-30T13:34:26;97691.28;;;5.88;54.71
35655;BME280;21773;50.010;19.972;2023-01-30T13:37:30;97697.00;;;5.91;55.40
35655;BME280;21773;50.010;19.972;2023-01-30T13:40:37;97696.69;;;5.81;55.98
35655;BME280;21773;50.010;19.972;2023-01-30T13:43:45;97689.16;;;5.72;56.01
35655;BME280;21773;50.010;19.972;2023-01-30T13:46:53;97696.22;;;5.84;55.54
35655;BME280;21773;50.010;19.972;2023-01-30T13:50:11;97694.94;;;5.93;55.37
35655;BME280;21773;50.010;19.972;2023-01-30T13:53:27;97705.41;;;5.95;55.10
35655;BME280;21773;50.010;19.972;2023-01-30T13:56:39;97688.53;;;5.94;55.22
35655;BME280;21773;50.010;19.972;2023-01-30T14:00:00;97694.22;;;6.04;54.91
35655;BME280;21773;50.010;19.972;2023-01-30T14:03:26;97703.31;;;5.97;55.33
35655;BME280;21773;50.010;19.972;2023-01-30T14:06:36;97693.53;;;5.91;55.23
35655;BME280;21773;50.010;19.972;2023-01-30T14:09:43;97703.31;;;5.97;54.92
35655;BME280;21773;50.010;19.972;2023-01-30T14:12:49;97692.94;;;6.07;55.10
35655;BME280;21773;50.010;19.972;2023-01-30T14:15:55;97712.78;;;5.99;55.23
35655;BME280;21773;50.010;19.972;2023-01-30T14:19:19;97693.91;;;5.94;55.58
35655;BME280;21773;50.010;19.972;2023-01-30T14:22:24;97700.34;;;5.87;56.04
35655;BME280;21773;50.010;19.972;2023-01-30T14:25:33;97700.28;;;5.93;55.83
35655;BME280;21773;50.010;19.972;2023-01-30T14:28:44;97697.97;;;5.97;55.35
35655;BME280;21773;50.010;19.972;2023-01-30T14:31:49;97700.13;;;5.88;55.73
35655;BME280;21773;50.010;19.972;2023-01-30T14:35:15;97693.34;;;5.86;55.56
35655;BME280;21773;50.010;19.972;2023-01-30T14:38:21;97700.34;;;5.87;55.11
35655;BME280;21773;50.010;19.972;2023-01-30T14:41:26;97684.16;;;6.00;54.84
35655;BME280;21773;50.010;19.972;2023-01-30T14:44:58;97691.91;;;6.08;54.47
35655;BME280;21773;50.010;19.972;2023-01-30T14:48:29;97700.59;;;6.22;53.96
35655;BME280;21773;50.010;19.972;2023-01-30T14:51:42;97706.47;;;6.12;53.46
35655;BME280;21773;50.010;19.972;2023-01-30T14:54:49;97701.78;;;6.26;52.98
35655;BME280;21773;50.010;19.972;2023-01-30T14:57:54;97693.00;;;6.37;52.67
35655;BME280;21773;50.010;19.972;2023-01-30T15:01:00;97704.47;;;6.26;52.47
35655;BME280;21773;50.010;19.972;2023-01-30T15:04:04;97705.38;;;6.38;51.88
35655;BME280;21773;50.010;19.972;2023-01-30T15:07:11;97688.16;;;6.45;51.96
35655;BME280;21773;50.010;19.972;2023-01-30T15:10:28;97694.34;;;6.46;51.67
35655;BME280;21773;50.010;19.972;2023-01-30T15:13:43;97698.38;;;6.37;51.59
35655;BME280;21773;50.010;19.972;2023-01-30T15:17:00;97698.19;;;6.50;51.39
35655;BME280;21773;50.010;19.972;2023-01-30T15:20:25;97708.13;;;6.49;51.16
35655;BME280;21773;50.010;19.972;2023-01-30T15:23:51;97710.78;;;6.31;51.44
35655;BME280;21773;50.010;19.972;2023-01-30T15:27:02;97708.19;;;6.43;51.24
35655;BME280;21773;50.010;19.972;2023-01-30T15:30:23;97718.97;;;6.55;50.99
35655;BME280;21773;50.010;19.972;2023-01-30T15:33:27;97717.91;;;6.56;50.96
35655;BME280;21773;50.010;19.972;2023-01-30T15:36:34;97715.31;;;6.67;51.02
35655;BME280;21773;50.010;19.972;2023-01-30T15:39:41;97718.63;;;6.81;50.79
35655;BME280;21773;50.010;19.972;2023-01-30T15:42:46;97727.41;;;6.88;50.57
35655;BME280;21773;50.010;19.972;2023-01-30T15:45:59;97725.16;;;6.85;51.09
35655;BME280;21773;50.010;19.972;2023-01-30T15:49:20;97728.22;;;6.88;50.98
35655;BME280;21773;50.010;19.972;2023-01-30T15:52:35;97743.63;;;6.75;51.38
35655;BME280;21773;50.010;19.972;2023-01-30T15:55:43;97736.41;;;6.75;51.65
35655;BME280;21773;50.010;19.972;2023-01-30T15:58:47;97739.69;;;6.77;52.23
35655;BME280;21773;50.010;19.972;2023-01-30T16:01:58;97741.19;;;6.73;52.32
35655;BME280;21773;50.010;19.972;2023-01-30T16:05:13;97745.06;;;6.77;52.54
35655;BME280;21773;50.010;19.972;2023-01-30T16:08:20;97735.84;;;6.73;52.64
35655;BME280;21773;50.010;19.972;2023-01-30T16:11:39;97739.34;;;6.74;52.67
35655;BME280;21773;50.010;19.972;2023-01-30T16:14:42;97753.16;;;6.52;53.52
35655;BME280;21773;50.010;19.972;2023-01-30T16:17:56;97752.72;;;6.56;53.52
35655;BME280;21773;50.010;19.972;2023-01-30T16:21:01;97739.84;;;6.28;53.79
35655;BME280;21773;50.010;19.972;2023-01-30T16:24:11;97764.25;;;6.56;53.58
35655;BME280;21773;50.010;19.972;2023-01-30T16:27:19;97762.69;;;6.67;53.16
35655;BME280;21773;50.010;19.972;2023-01-30T16:30:28;97772.72;;;6.71;53.07
35655;BME280;21773;50.010;19.972;2023-01-30T16:33:32;97783.00;;;6.74;52.91
35655;BME280;21773;50.010;19.972;2023-01-30T16:36:39;97792.75;;;6.87;52.42
35655;BME280;21773;50.010;19.972;2023-01-30T16:39:43;97803.91;;;6.84;52.62